EKGL weather

Gørløse Glider Field
Gørløse, Capital Region, Denmark

Public forecast

Using degrees Celsius for public forecast. Weather courtesy of forecast.io.

METAR (pilot weather report)

Closest report is Copenhagen Roskilde Airport, 18.3 nm (33.9 km) S. Retrieved 2019/07/23 19:20 UTC (11 minutes ago):

EKRK 231920Z AUTO 01002KT 9999 NCD 22/17 Q1019

TAF (pilot weather forecast)

Closest forecast is Copenhagen Kastrup Airport, 21.6 nm (40.0 km) SE. Retrieved 2019/07/23 18:30 UTC (1 hour ago):

TAF EKCH 231705Z 2318/2418 03010KT 9999 FEW030 BECMG 2319/2321 VRB03KT TEMPO 2400/2406 0800 BCFG BKN002